Time;durP1;ratioP1;P1;durP2;ratioP2;P2;SDS_P1;SDS_P2;PMS_P1;PMS_P2;Temp;Humidity;BMP_temperature;BMP_pressure;BME280_temperature;BME280_humidity;BME280_pressure;Samples;Min_cycle;Max_cycle;Signal;HPM_P1;HPM_P2
2022/07/18 00:00:11;;;;;;;1.13;0.80;;;20.50;40.80;;;;;;5115133;28;20020;-72
2022/07/18 00:02:37;;;;;;;2.17;1.08;;;20.50;40.70;;;;;;5113916;28;20097;-75
2022/07/18 00:05:04;;;;;;;2.35;0.93;;;20.40;40.70;;;;;;5102855;28;20047;-72
2022/07/18 00:07:29;;;;;;;4.40;0.90;;;20.40;40.60;;;;;;5095459;28;20028;-74
2022/07/18 00:09:55;;;;;;;2.70;1.20;;;20.40;40.60;;;;;;5115049;28;20080;-72
2022/07/18 00:12:21;;;;;;;2.15;1.00;;;20.30;40.50;;;;;;5114936;28;20020;-72
2022/07/18 00:14:47;;;;;;;1.92;1.20;;;20.30;41.00;;;;;;5114975;28;20023;-75
2022/07/18 00:17:13;;;;;;;2.78;0.90;;;20.30;41.20;;;;;;5113857;28;20102;-70
2022/07/18 00:19:39;;;;;;;3.22;1.10;;;20.20;41.20;;;;;;5113354;28;20023;-76
2022/07/18 00:22:06;;;;;;;1.40;1.02;;;20.20;41.10;;;;;;5114745;28;20042;-72
2022/07/18 00:24:32;;;;;;;1.63;1.15;;;20.20;42.00;;;;;;5114727;28;20542;-75
2022/07/18 00:26:59;;;;;;;3.03;1.35;;;20.20;42.20;;;;;;5098260;27;20028;-72
2022/07/18 00:29:25;;;;;;;1.70;0.98;;;20.10;41.90;;;;;;5113607;28;20484;-73
2022/07/18 00:31:51;;;;;;;2.08;1.13;;;20.10;42.20;;;;;;5114564;28;20031;-71
2022/07/18 00:34:17;;;;;;;2.13;1.42;;;20.10;42.50;;;;;;5112977;28;20031;-71
2022/07/18 00:36:43;;;;;;;1.27;0.93;;;20.00;42.30;;;;;;5114445;28;20027;-73
2022/07/18 00:39:09;;;;;;;1.00;0.80;;;20.10;42.20;;;;;;5113224;28;20550;-75
2022/07/18 00:41:35;;;;;;;1.70;1.10;;;20.00;42.30;;;;;;5096121;27;20024;-74
2022/07/18 00:44:00;;;;;;;1.75;1.17;;;20.00;42.50;;;;;;5092934;28;20108;-71
2022/07/18 00:46:28;;;;;;;2.22;1.10;;;20.00;42.60;;;;;;5093905;28;20380;-71
2022/07/18 00:48:54;;;;;;;1.75;1.02;;;19.90;42.40;;;;;;5093984;28;20443;-71
2022/07/18 00:51:21;;;;;;;1.80;1.15;;;19.90;42.20;;;;;;5093914;28;20048;-73
2022/07/18 00:53:48;;;;;;;1.40;1.00;;;19.90;42.10;;;;;;5093749;28;20485;-75
2022/07/18 00:56:17;;;;;;;1.20;1.00;;;19.80;42.10;;;;;;5100034;28;20062;-74
2022/07/18 00:58:43;;;;;;;1.52;0.82;;;19.80;42.00;;;;;;5093780;28;20020;-74
2022/07/18 01:03:54;;;;;;;;;;;19.80;41.70;;;;;;5094963;28;20035;-74
2022/07/18 01:06:20;;;;;;;1.48;0.95;;;19.80;41.10;;;;;;5113651;28;20337;-71
2022/07/18 01:08:46;;;;;;;1.75;0.80;;;19.80;41.50;;;;;;5113651;28;20102;-75
2022/07/18 01:11:13;;;;;;;6.50;1.10;;;19.70;41.60;;;;;;5112653;28;20497;-74
2022/07/18 01:13:40;;;;;;;8.60;1.00;;;19.70;41.70;;;;;;5113577;28;20023;-73
2022/07/18 01:16:06;;;;;;;1.35;0.88;;;19.70;42.00;;;;;;5113662;28;20437;-73
2022/07/18 01:18:32;;;;;;;3.17;1.00;;;19.70;42.20;;;;;;5113499;27;20093;-73
2022/07/18 01:20:58;;;;;;;1.52;1.00;;;19.60;42.50;;;;;;5113294;28;20052;-74
2022/07/18 01:23:23;;;;;;;2.67;1.13;;;19.70;42.60;;;;;;5112839;27;20073;-73
2022/07/18 01:25:49;;;;;;;1.17;0.90;;;19.60;42.60;;;;;;5103316;28;20040;-73
2022/07/18 01:28:15;;;;;;;1.30;0.90;;;19.60;42.90;;;;;;5092996;28;20042;-73
2022/07/18 01:30:41;;;;;;;2.88;1.17;;;19.60;43.30;;;;;;5110674;28;20027;-74
2022/07/18 01:33:07;;;;;;;1.10;0.90;;;19.60;43.30;;;;;;5113251;28;20019;-70
2022/07/18 01:35:33;;;;;;;1.95;1.00;;;19.60;43.40;;;;;;5113255;27;20086;-75
2022/07/18 01:38:01;;;;;;;1.70;0.98;;;19.60;43.70;;;;;;5111314;28;20034;-75
2022/07/18 01:40:27;;;;;;;2.13;1.33;;;19.50;43.60;;;;;;5105402;28;20028;-72
2022/07/18 01:42:53;;;;;;;1.10;1.00;;;19.60;43.90;;;;;;5092654;28;20470;-76
2022/07/18 01:45:19;;;;;;;2.10;1.17;;;19.50;44.20;;;;;;5092729;28;20108;-74
2022/07/18 01:47:45;;;;;;;1.05;0.95;;;19.50;43.90;;;;;;5092456;28;20388;-75
2022/07/18 01:50:13;;;;;;;1.23;0.90;;;19.50;44.50;;;;;;5091305;28;20027;-76
2022/07/18 01:52:39;;;;;;;2.13;1.00;;;19.50;43.80;;;;;;5092575;28;20024;-72
2022/07/18 01:55:07;;;;;;;1.05;0.85;;;19.40;43.70;;;;;;5092763;28;20059;-74
2022/07/18 01:57:33;;;;;;;0.95;0.90;;;19.40;43.70;;;;;;5092544;28;20024;-71
2022/07/18 01:59:59;;;;;;;2.25;1.20;;;19.40;43.60;;;;;;5108349;28;20464;-75
2022/07/18 02:02:25;;;;;;;1.63;1.02;;;19.40;43.70;;;;;;5112713;28;20030;-73
2022/07/18 02:05:00;;;;;;;1.30;1.00;;;19.30;43.70;;;;;;5110834;28;20031;-76
2022/07/18 02:07:34;;;;;;;2.67;1.33;;;19.30;43.70;;;;;;5111353;28;20065;-74
2022/07/18 02:10:02;;;;;;;2.67;1.25;;;19.30;43.90;;;;;;5112559;28;20372;-74
2022/07/18 02:12:28;;;;;;;1.33;1.05;;;19.30;43.80;;;;;;5109282;28;20103;-73
2022/07/18 02:14:54;;;;;;;1.55;1.13;;;19.20;44.00;;;;;;5111947;28;20126;-75
2022/07/18 02:17:20;;;;;;;3.22;1.10;;;19.20;44.10;;;;;;5112556;28;20107;-72
2022/07/18 02:19:46;;;;;;;1.90;1.15;;;19.20;44.40;;;;;;5111896;28;20054;-71
2022/07/18 02:22:12;;;;;;;1.48;1.13;;;19.20;44.50;;;;;;5112447;28;20058;-75
2022/07/18 02:24:38;;;;;;;1.90;1.20;;;19.20;44.30;;;;;;5112458;28;20055;-73
2022/07/18 02:27:04;;;;;;;1.02;0.93;;;19.10;44.40;;;;;;5095894;28;20095;-73
2022/07/18 02:29:30;;;;;;;3.47;1.10;;;19.10;44.70;;;;;;5112400;28;20027;-73
2022/07/18 02:31:56;;;;;;;1.73;1.17;;;19.10;44.90;;;;;;5112341;28;20023;-72
2022/07/18 02:34:22;;;;;;;2.80;1.00;;;19.10;45.70;;;;;;5112237;28;20039;-74
2022/07/18 02:36:50;;;;;;;4.28;1.20;;;19.10;45.90;;;;;;5111364;28;20114;-72
2022/07/18 02:39:16;;;;;;;2.35;1.52;;;19.00;46.10;;;;;;5103630;28;20028;-75
2022/07/18 02:41:43;;;;;;;5.07;1.15;;;19.00;46.30;;;;;;5091876;28;20032;-71
2022/07/18 02:44:09;;;;;;;1.23;0.95;;;19.00;47.40;;;;;;5091958;28;20024;-71
2022/07/18 02:46:35;;;;;;;1.38;0.85;;;19.00;46.70;;;;;;5091724;28;20473;-76
2022/07/18 02:49:01;;;;;;;2.63;1.30;;;19.00;46.90;;;;;;5090546;28;20031;-73
2022/07/18 02:51:26;;;;;;;2.00;1.27;;;19.00;47.30;;;;;;5091740;28;20031;-71
2022/07/18 02:53:52;;;;;;;1.40;1.02;;;19.00;47.30;;;;;;5091834;28;20032;-73
2022/07/18 02:56:18;;;;;;;1.67;1.00;;;18.90;48.50;;;;;;5092083;28;20040;-71
2022/07/18 02:58:44;;;;;;;1.65;0.98;;;18.90;47.70;;;;;;5090437;28;20511;-72
2022/07/18 03:01:10;;;;;;;3.63;1.17;;;18.90;47.60;;;;;;5091752;28;20093;-75
2022/07/18 03:03:35;;;;;;;1.15;0.98;;;18.90;47.90;;;;;;5090137;28;20362;-73
2022/07/18 03:06:01;;;;;;;2.45;1.30;;;18.80;48.20;;;;;;5091378;28;20123;-72
2022/07/18 03:08:27;;;;;;;3.33;1.60;;;18.80;48.20;;;;;;5091684;28;20020;-74
2022/07/18 03:10:53;;;;;;;1.98;1.20;;;18.80;48.30;;;;;;5094955;28;20035;-74
2022/07/18 03:13:18;;;;;;;3.10;1.30;;;18.80;48.50;;;;;;5091792;28;20020;-73
2022/07/18 03:15:44;;;;;;;2.35;1.33;;;18.70;48.30;;;;;;5091943;28;20095;-71
2022/07/18 03:18:10;;;;;;;2.25;1.20;;;18.80;48.50;;;;;;5091597;28;20043;-74
2022/07/18 03:20:36;;;;;;;2.28;1.33;;;18.70;49.20;;;;;;5091583;28;20481;-74
2022/07/18 03:23:05;;;;;;;3.70;1.20;;;18.70;48.80;;;;;;5091924;28;20036;-71
2022/07/18 03:25:32;;;;;;;4.40;0.90;;;18.70;48.80;;;;;;5090600;28;20516;-71
2022/07/18 03:27:57;;;;;;;5.43;1.17;;;18.70;49.10;;;;;;5091691;28;20087;-71
2022/07/18 03:30:23;;;;;;;2.63;1.23;;;18.70;49.00;;;;;;5097589;28;20106;-72
2022/07/18 03:32:49;;;;;;;2.42;1.10;;;18.60;48.90;;;;;;5101328;28;20028;-72
2022/07/18 03:35:15;;;;;;;1.35;1.05;;;18.70;48.70;;;;;;5101984;28;20051;-75
2022/07/18 03:37:41;;;;;;;1.80;1.10;;;18.70;48.40;;;;;;5101329;28;20020;-74
2022/07/18 03:40:07;;;;;;;1.40;1.00;;;18.60;48.30;;;;;;5101287;28;20607;-75
2022/07/18 03:42:36;;;;;;;2.00;0.90;;;18.60;48.30;;;;;;5101084;28;20028;-72
2022/07/18 03:45:01;;;;;;;3.30;1.08;;;18.70;48.20;;;;;;5102888;28;20032;-73
2022/07/18 03:47:27;;;;;;;1.55;1.00;;;18.60;47.80;;;;;;5099185;28;20020;-73
2022/07/18 03:49:53;;;;;;;1.35;1.00;;;18.60;47.70;;;;;;5099162;28;20433;-73
2022/07/18 03:52:19;;;;;;;1.55;0.90;;;18.70;47.80;;;;;;5095066;28;20047;-75
2022/07/18 03:54:44;;;;;;;1.33;0.95;;;18.70;47.90;;;;;;5094558;28;20062;-73
2022/07/18 03:57:10;;;;;;;3.80;1.15;;;18.70;47.70;;;;;;5094832;28;20099;-75
2022/07/18 03:59:36;;;;;;;0.85;0.85;;;18.70;47.50;;;;;;5094492;28;20069;-75
2022/07/18 04:02:02;;;;;;;2.28;1.05;;;18.70;47.30;;;;;;5094502;28;20510;-75
2022/07/18 04:04:27;;;;;;;4.63;0.80;;;18.80;47.40;;;;;;5099842;28;20031;-72
2022/07/18 04:06:53;;;;;;;5.72;1.50;;;18.70;47.40;;;;;;5114570;28;20173;-73
2022/07/18 04:09:19;;;;;;;4.78;1.30;;;18.80;47.70;;;;;;5114473;28;20032;-73
2022/07/18 04:11:45;;;;;;;5.55;1.40;;;18.80;47.70;;;;;;5114599;28;20510;-74
2022/07/18 04:14:11;;;;;;;2.08;1.10;;;18.80;47.70;;;;;;5114700;28;20107;-75
2022/07/18 04:16:36;;;;;;;2.13;1.08;;;18.90;47.90;;;;;;5114649;28;20035;-74
2022/07/18 04:19:02;;;;;;;3.53;1.25;;;18.90;47.80;;;;;;5114440;28;20062;-72
2022/07/18 04:21:28;;;;;;;1.98;1.10;;;18.90;47.70;;;;;;5113694;28;20079;-75
2022/07/18 04:23:54;;;;;;;3.05;1.63;;;19.00;47.90;;;;;;5114511;28;20514;-76
2022/07/18 04:26:20;;;;;;;4.15;1.45;;;19.00;48.20;;;;;;5101936;28;20056;-73
2022/07/18 04:28:46;;;;;;;5.40;1.50;;;19.00;48.60;;;;;;5104391;28;20068;-71
2022/07/18 04:31:11;;;;;;;1.92;1.05;;;19.10;48.40;;;;;;5093958;28;20107;-73
2022/07/18 04:33:37;;;;;;;2.75;1.10;;;19.10;48.20;;;;;;5094043;28;20028;-71
2022/07/18 04:36:03;;;;;;;5.50;1.80;;;19.10;48.10;;;;;;5093823;28;20069;-74
2022/07/18 04:38:33;;;;;;;8.13;1.85;;;19.20;48.20;;;;;;5093851;28;20512;-72
2022/07/18 04:40:59;;;;;;;17.27;1.77;;;19.30;48.30;;;;;;5093961;28;20020;-76
2022/07/18 04:43:25;;;;;;;4.40;1.40;;;19.20;48.50;;;;;;5093439;28;20031;-73
2022/07/18 04:45:51;;;;;;;4.60;1.10;;;19.30;48.50;;;;;;5093786;28;20051;-71
2022/07/18 04:48:17;;;;;;;3.50;1.70;;;19.40;48.40;;;;;;5093799;28;20077;-73
2022/07/18 04:50:42;;;;;;;1.83;1.13;;;19.40;47.90;;;;;;5113595;28;20090;-76
2022/07/18 04:53:08;;;;;;;10.25;1.50;;;19.50;47.90;;;;;;5114133;28;20505;-74
2022/07/18 04:55:34;;;;;;;5.90;1.42;;;19.50;48.60;;;;;;5108938;28;20028;-76
2022/07/18 04:58:00;;;;;;;3.03;1.35;;;19.50;48.00;;;;;;5113877;28;20069;-75
2022/07/18 05:00:26;;;;;;;3.63;1.50;;;19.60;47.90;;;;;;5113850;28;20024;-72
2022/07/18 05:02:54;;;;;;;2.30;1.10;;;19.70;47.60;;;;;;5113704;28;20084;-73
2022/07/18 05:05:21;;;;;;;2.88;1.13;;;19.70;47.30;;;;;;5099724;28;20028;-75
2022/07/18 05:07:48;;;;;;;1.25;1.00;;;19.80;47.40;;;;;;5108935;28;20476;-73
2022/07/18 05:10:16;;;;;;;4.47;1.55;;;19.80;47.10;;;;;;5093160;28;20457;-73
2022/07/18 05:12:44;;;;;;;4.15;1.58;;;19.90;46.90;;;;;;5095305;27;20124;-73
2022/07/18 05:15:11;;;;;;;2.78;1.17;;;19.90;46.80;;;;;;5094085;28;20020;-70
2022/07/18 05:17:38;;;;;;;1.85;1.20;;;20.00;46.80;;;;;;5092798;28;20032;-74
2022/07/18 05:20:10;;;;;;;2.78;1.20;;;20.00;46.90;;;;;;5092927;28;20517;-74
2022/07/18 05:22:36;;;;;;;3.90;1.10;;;20.10;46.80;;;;;;5091820;28;20066;-73
2022/07/18 05:25:05;;;;;;;6.28;1.30;;;20.10;46.90;;;;;;5091854;28;20119;-73
2022/07/18 05:27:31;;;;;;;2.17;0.98;;;20.20;46.90;;;;;;5091267;28;20032;-75
2022/07/18 05:29:58;;;;;;;8.60;1.60;;;20.20;46.70;;;;;;5109785;28;20019;-74
2022/07/18 05:32:25;;;;;;;15.80;1.70;;;20.30;46.60;;;;;;5116667;27;20023;-74
2022/07/18 05:34:51;;;;;;;4.03;1.08;;;20.30;46.50;;;;;;5102811;28;20107;-73
2022/07/18 05:37:17;;;;;;;3.33;1.77;;;20.40;46.40;;;;;;5096505;28;20102;-72
2022/07/18 05:39:42;;;;;;;2.33;1.30;;;20.40;46.20;;;;;;5106668;28;20027;-75
2022/07/18 05:42:08;;;;;;;2.70;1.60;;;20.50;46.10;;;;;;5115673;27;20039;-76
2022/07/18 05:44:34;;;;;;;1.83;1.40;;;20.50;45.90;;;;;;5114924;27;20023;-71
2022/07/18 05:47:00;;;;;;;3.58;1.67;;;20.60;45.90;;;;;;5110222;28;20028;-75
2022/07/18 05:49:26;;;;;;;3.95;1.50;;;20.60;45.80;;;;;;5112551;28;20510;-76
2022/07/18 05:51:51;;;;;;;4.00;1.48;;;20.70;45.80;;;;;;5112720;28;20020;-72
2022/07/18 05:54:19;;;;;;;6.82;1.67;;;20.70;45.70;;;;;;5111675;28;20020;-72
2022/07/18 05:56:51;;;;;;;9.60;1.60;;;20.80;45.60;;;;;;5110375;28;20025;-72
2022/07/18 05:59:18;;;;;;;2.20;1.60;;;20.90;45.50;;;;;;5112406;28;20018;-77
2022/07/18 06:01:44;;;;;;;6.25;1.55;;;20.90;45.40;;;;;;5109062;28;20472;-73
2022/07/18 06:04:10;;;;;;;5.18;1.85;;;21.00;45.30;;;;;;5108862;28;20042;-75
2022/07/18 06:06:36;;;;;;;5.47;2.22;;;21.00;45.20;;;;;;5112060;28;20023;-73
2022/07/18 06:09:03;;;;;;;4.28;1.90;;;21.10;45.00;;;;;;5110823;28;20016;-72
2022/07/18 06:11:29;;;;;;;6.30;2.50;;;21.20;44.90;;;;;;5109645;28;20023;-72
2022/07/18 06:13:55;;;;;;;5.25;2.38;;;21.20;44.80;;;;;;5111690;28;20019;-72
2022/07/18 06:16:21;;;;;;;11.50;2.00;;;21.30;44.80;;;;;;5111674;28;20052;-72
2022/07/18 06:18:47;;;;;;;5.10;2.00;;;21.40;44.80;;;;;;5111315;28;20079;-73
2022/07/18 06:21:13;;;;;;;9.80;2.63;;;21.50;44.60;;;;;;5103149;28;20052;-72
2022/07/18 06:23:40;;;;;;;8.95;2.63;;;21.60;44.70;;;;;;5092899;28;20016;-73
2022/07/18 06:26:06;;;;;;;6.28;2.17;;;21.60;44.20;;;;;;5107010;28;20028;-72
2022/07/18 06:28:32;;;;;;;8.90;3.22;;;21.70;44.40;;;;;;5109958;28;20410;-75
2022/07/18 06:30:58;;;;;;;8.27;2.35;;;21.80;43.80;;;;;;5102787;28;20016;-73
2022/07/18 06:33:24;;;;;;;10.90;2.80;;;21.80;43.90;;;;;;5092442;28;20538;-74
2022/07/18 06:35:50;;;;;;;6.15;2.75;;;21.90;44.20;;;;;;5096859;28;20020;-74
2022/07/18 06:38:16;;;;;;;28.40;4.00;;;22.00;43.90;;;;;;5112898;28;20099;-75
2022/07/18 06:40:43;;;;;;;8.57;3.50;;;22.00;43.30;;;;;;5112725;28;20096;-75
2022/07/18 06:43:09;;;;;;;7.13;3.00;;;22.10;43.50;;;;;;5113226;28;20028;-76
2022/07/18 06:45:35;;;;;;;11.70;3.92;;;22.20;43.40;;;;;;5113114;28;20024;-76
2022/07/18 06:48:01;;;;;;;12.25;3.50;;;22.30;42.70;;;;;;5108206;28;20103;-73
2022/07/18 06:50:27;;;;;;;8.85;4.07;;;22.40;42.50;;;;;;5092867;28;20465;-74
2022/07/18 06:52:53;;;;;;;8.52;4.07;;;22.40;42.30;;;;;;5092806;28;20020;-74
2022/07/18 06:55:18;;;;;;;15.60;4.18;;;22.50;41.70;;;;;;5092866;28;20027;-75
2022/07/18 06:57:45;;;;;;;15.13;3.70;;;22.60;41.50;;;;;;5092612;28;20032;-76
2022/07/18 07:00:13;;;;;;;7.65;3.80;;;22.70;41.70;;;;;;5105682;28;20047;-75
2022/07/18 07:02:47;;;;;;;11.25;4.07;;;22.70;40.90;;;;;;5113062;28;20083;-72
2022/07/18 07:05:13;;;;;;;;;;;22.80;40.20;;;;;;5114035;28;20084;-72
2022/07/18 07:07:39;;;;;;;13.98;5.03;;;22.90;41.30;;;;;;5117117;28;19914;-75
2022/07/18 07:10:05;;;;;;;11.93;5.05;;;23.00;39.60;;;;;;5117087;28;20016;-73
2022/07/18 07:12:41;;;;;;;14.57;5.10;;;23.10;39.70;;;;;;5115750;28;20095;-76
2022/07/18 07:15:08;;;;;;;11.10;4.97;;;23.10;39.40;;;;;;5115678;28;20046;-76
2022/07/18 07:17:34;;;;;;;14.60;5.68;;;23.20;39.70;;;;;;5117003;28;20053;-74
2022/07/18 07:20:00;;;;;;;14.93;5.20;;;23.30;39.10;;;;;;5116763;28;20048;-73
2022/07/18 07:22:26;;;;;;;17.08;6.32;;;23.40;38.70;;;;;;5115580;28;20028;-75
2022/07/18 07:24:52;;;;;;;16.15;6.88;;;23.50;38.60;;;;;;5116961;28;20145;-73
2022/07/18 07:27:17;;;;;;;15.85;5.82;;;23.50;38.50;;;;;;5098254;28;20035;-75
2022/07/18 07:29:43;;;;;;;19.98;6.20;;;23.60;38.40;;;;;;5096377;28;20048;-71
2022/07/18 07:32:09;;;;;;;12.68;5.70;;;23.70;38.30;;;;;;5096174;28;20090;-75
2022/07/18 07:34:35;;;;;;;11.32;5.38;;;23.70;38.40;;;;;;5096150;28;20106;-75
2022/07/18 07:37:01;;;;;;;9.32;5.10;;;23.80;38.40;;;;;;5096054;28;20035;-74
2022/07/18 07:39:27;;;;;;;12.90;4.60;;;23.90;37.90;;;;;;5096148;28;20027;-74
2022/07/18 07:41:52;;;;;;;9.10;4.10;;;24.00;37.80;;;;;;5096120;28;20111;-74
2022/07/18 07:44:18;;;;;;;9.00;4.70;;;24.00;37.70;;;;;;5094737;28;20055;-75
2022/07/18 07:46:44;;;;;;;17.65;6.03;;;24.10;37.20;;;;;;5095919;28;20099;-75
2022/07/18 07:49:10;;;;;;;9.68;5.18;;;24.10;37.00;;;;;;5096182;28;20020;-76
2022/07/18 07:51:36;;;;;;;12.80;4.93;;;24.20;36.90;;;;;;5095843;28;20219;-72
2022/07/18 07:54:02;;;;;;;9.15;3.72;;;24.20;37.00;;;;;;5095774;28;20477;-75
2022/07/18 07:56:28;;;;;;;12.50;4.50;;;24.30;37.00;;;;;;5096102;28;20477;-74
2022/07/18 07:58:54;;;;;;;11.70;4.80;;;24.30;37.00;;;;;;5095677;28;20080;-73
2022/07/18 08:01:20;;;;;;;10.45;4.93;;;24.40;36.70;;;;;;5095746;28;20379;-73
2022/07/18 08:03:48;;;;;;;8.77;4.55;;;24.40;36.40;;;;;;5095731;28;20369;-74
2022/07/18 08:06:14;;;;;;;13.18;4.50;;;24.50;36.40;;;;;;5094186;28;20108;-73
2022/07/18 08:08:40;;;;;;;12.65;4.43;;;24.50;35.90;;;;;;5103685;28;20491;-71
2022/07/18 08:11:06;;;;;;;10.80;4.03;;;24.60;36.00;;;;;;5116040;28;20027;-72
2022/07/18 08:13:31;;;;;;;6.13;3.40;;;24.60;36.10;;;;;;5115998;28;20019;-74
2022/07/18 08:15:57;;;;;;;19.08;4.72;;;24.70;35.50;;;;;;5115864;27;20023;-75
2022/07/18 08:18:23;;;;;;;13.65;4.00;;;24.70;35.00;;;;;;5114914;28;20103;-72
2022/07/18 08:20:49;;;;;;;11.25;3.45;;;24.80;35.50;;;;;;5115359;28;20520;-73
2022/07/18 08:23:16;;;;;;;6.68;2.70;;;24.90;35.30;;;;;;5115658;28;20065;-73
2022/07/18 08:25:44;;;;;;;4.60;2.22;;;25.00;34.80;;;;;;5111229;28;20020;-73
2022/07/18 08:28:11;;;;;;;5.00;1.75;;;25.00;33.00;;;;;;5103739;28;20024;-73
2022/07/18 08:30:37;;;;;;;8.70;2.00;;;25.10;33.30;;;;;;5108860;28;20057;-74
2022/07/18 08:33:03;;;;;;;3.40;1.83;;;25.20;31.70;;;;;;5095037;28;20020;-72
2022/07/18 08:35:31;;;;;;;9.00;2.17;;;25.20;31.50;;;;;;5094976;28;20408;-73
2022/07/18 08:37:58;;;;;;;5.82;2.60;;;25.30;30.80;;;;;;5094858;28;20031;-73
2022/07/18 08:40:24;;;;;;;4.35;2.25;;;25.40;31.60;;;;;;5094902;28;20028;-73
2022/07/18 08:42:53;;;;;;;4.75;1.90;;;25.50;31.20;;;;;;5094835;28;20020;-72
2022/07/18 08:45:24;;;;;;;5.45;2.22;;;25.60;31.50;;;;;;5094874;28;20027;-69
2022/07/18 08:47:51;;;;;;;3.92;2.05;;;25.60;30.80;;;;;;5093725;28;20028;-73
2022/07/18 08:50:18;;;;;;;5.93;1.85;;;25.70;31.10;;;;;;5094682;28;20020;-71
2022/07/18 08:52:45;;;;;;;6.10;2.03;;;25.80;30.50;;;;;;5094661;28;20535;-72
2022/07/18 08:55:11;;;;;;;5.10;2.10;;;25.80;30.40;;;;;;5094495;28;20537;-69
2022/07/18 08:57:37;;;;;;;4.32;1.95;;;25.90;29.90;;;;;;5113205;28;20480;-73
2022/07/18 09:00:05;;;;;;;2.20;1.50;;;26.00;30.80;;;;;;5113536;28;20055;-71
2022/07/18 09:02:31;;;;;;;5.80;1.30;;;26.00;31.40;;;;;;5113586;28;20027;-72
2022/07/18 09:05:01;;;;;;;4.88;1.75;;;26.10;31.80;;;;;;5113543;28;20024;-74
2022/07/18 09:07:34;;;;;;;4.47;2.20;;;26.20;31.80;;;;;;5114613;28;20024;-70
2022/07/18 09:10:03;;;;;;;3.25;1.73;;;26.30;30.60;;;;;;5113483;28;20053;-73
2022/07/18 09:12:33;;;;;;;4.30;1.75;;;26.30;30.60;;;;;;5114713;28;20058;-70
2022/07/18 09:15:13;;;;;;;4.25;1.50;;;26.40;30.90;;;;;;5114679;27;20016;-73
2022/07/18 09:17:39;;;;;;;4.18;1.75;;;26.40;31.30;;;;;;5113200;28;20027;-72
2022/07/18 09:20:10;;;;;;;5.30;2.65;;;26.50;31.30;;;;;;5114460;28;20048;-73
2022/07/18 09:22:38;;;;;;;4.47;1.80;;;26.60;31.60;;;;;;5114795;28;20103;-73
2022/07/18 09:25:24;;;;;;;4.15;1.55;;;26.70;31.90;;;;;;5114824;28;20476;-70
2022/07/18 09:27:52;;;;;;;6.50;2.35;;;26.70;31.30;;;;;;5094039;28;20024;-71
2022/07/18 09:30:28;;;;;;;6.15;1.75;;;26.80;31.20;;;;;;5094076;28;20057;-72
2022/07/18 09:33:03;;;;;;;6.70;1.83;;;26.80;30.50;;;;;;5093887;28;20023;-74
2022/07/18 09:35:32;;;;;;;3.47;1.63;;;26.90;31.00;;;;;;5092546;28;20021;-71
2022/07/18 09:38:01;;;;;;;4.45;2.25;;;27.00;31.60;;;;;;5093872;28;20426;-73
2022/07/18 09:40:35;;;;;;;4.10;1.80;;;27.00;30.30;;;;;;5093879;28;20048;-73
2022/07/18 09:43:10;;;;;;;3.67;1.90;;;27.10;30.00;;;;;;5092552;28;20032;-72
2022/07/18 09:45:42;;;;;;;6.47;2.22;;;27.20;30.20;;;;;;5093689;28;20031;-73
2022/07/18 09:48:10;;;;;;;4.75;1.95;;;27.20;30.40;;;;;;5092425;28;20068;-73
2022/07/18 09:50:43;;;;;;;16.30;3.80;;;27.30;30.30;;;;;;5092475;28;20377;-71
2022/07/18 09:53:19;;;;;;;8.48;3.00;;;27.40;29.50;;;;;;5093715;28;20016;-71
2022/07/18 09:55:54;;;;;;;9.52;3.58;;;27.40;29.90;;;;;;5093902;28;20023;-72
2022/07/18 09:58:28;;;;;;;14.10;3.28;;;27.50;29.90;;;;;;5093705;28;20031;-74
2022/07/18 10:00:58;;;;;;;13.95;3.05;;;27.50;29.20;;;;;;5093523;28;20021;-72
2022/07/18 10:03:24;;;;;;;4.82;2.15;;;27.60;29.50;;;;;;5093453;28;20028;-73
2022/07/18 10:05:52;;;;;;;8.35;2.63;;;27.60;29.30;;;;;;5093477;28;20031;-71
2022/07/18 10:08:20;;;;;;;6.63;2.50;;;27.70;29.10;;;;;;5093425;28;20357;-74
2022/07/18 10:10:47;;;;;;;6.03;2.25;;;27.70;28.70;;;;;;5093330;28;20048;-72
2022/07/18 10:13:14;;;;;;;11.07;3.38;;;27.80;28.50;;;;;;5093299;28;20028;-73
2022/07/18 10:15:42;;;;;;;14.00;3.80;;;27.80;28.60;;;;;;5093205;28;20020;-73
2022/07/18 10:18:15;;;;;;;10.50;2.40;;;27.90;28.30;;;;;;5093303;28;20024;-72
2022/07/18 10:20:49;;;;;;;5.87;2.07;;;27.90;27.70;;;;;;5093005;28;20048;-76
2022/07/18 10:23:19;;;;;;;;;;;27.90;27.80;;;;;;5093403;28;20020;-74
2022/07/18 10:26:07;;;;;;;2.78;1.38;;;28.00;29.00;;;;;;5093403;28;19954;-70
2022/07/18 10:28:33;;;;;;;5.20;1.40;;;28.10;27.00;;;;;;5093907;28;20492;-71
2022/07/18 10:31:15;;;;;;;3.83;1.50;;;28.20;28.00;;;;;;5093086;28;20024;-71
2022/07/18 10:33:48;;;;;;;2.20;1.20;;;28.20;28.10;;;;;;5092007;28;20447;-75
2022/07/18 10:36:16;;;;;;;3.28;1.65;;;28.20;27.50;;;;;;5092996;28;20389;-73
2022/07/18 10:39:10;;;;;;;3.47;1.63;;;28.30;27.10;;;;;;5092832;28;20036;-74
2022/07/18 10:41:39;;;;;;;3.47;1.50;;;28.30;27.60;;;;;;5092500;28;20032;-71
2022/07/18 10:44:23;;;;;;;4.22;1.20;;;28.30;26.60;;;;;;5092842;28;20024;-71
2022/07/18 10:47:17;;;;;;;2.13;1.48;;;28.40;27.10;;;;;;5091348;28;20024;-72
2022/07/18 10:49:57;;;;;;;1.98;1.08;;;28.40;26.90;;;;;;5092685;28;20076;-70
2022/07/18 10:52:26;;;;;;;3.50;1.10;;;28.50;26.30;;;;;;5092741;28;20020;-71
2022/07/18 10:55:04;;;;;;;2.08;1.30;;;28.50;26.80;;;;;;5091554;28;20496;-70
2022/07/18 10:57:32;;;;;;;8.38;1.55;;;28.50;26.90;;;;;;5093074;28;20028;-69
2022/07/18 11:00:09;;;;;;;2.92;1.40;;;28.60;26.80;;;;;;5092722;28;20385;-72
2022/07/18 11:02:41;;;;;;;5.55;1.52;;;28.70;26.40;;;;;;5092737;28;20020;-73
2022/07/18 11:05:25;;;;;;;6.38;1.35;;;28.70;26.60;;;;;;5091484;28;20108;-73
2022/07/18 11:08:02;;;;;;;;;;;28.80;27.10;;;;;;5092981;28;20028;-73
2022/07/18 11:16:15;;;;;;;7.55;1.70;;;28.90;26.10;;;;;;5092522;28;20358;-72
2022/07/18 11:18:42;;;;;;;1.70;1.05;;;28.90;26.70;;;;;;5092619;28;20020;-74
2022/07/18 11:21:29;;;;;;;3.45;1.33;;;29.00;26.70;;;;;;5091029;28;20409;-70
2022/07/18 11:24:01;;;;;;;4.47;1.83;;;29.00;26.40;;;;;;5091222;28;20023;-72
2022/07/18 11:26:27;;;;;;;1.50;1.10;;;29.10;25.70;;;;;;5092623;28;20107;-73
2022/07/18 11:29:08;;;;;;;7.93;1.67;;;29.10;26.10;;;;;;5092439;28;20123;-74
2022/07/18 11:31:54;;;;;;;7.22;1.75;;;29.10;25.20;;;;;;5092438;28;20354;-72
2022/07/18 11:34:22;;;;;;;6.85;1.88;;;29.10;25.50;;;;;;5092387;28;20017;-71
2022/07/18 11:36:48;;;;;;;5.25;1.25;;;29.20;25.10;;;;;;5092418;28;20431;-70
2022/07/18 11:39:26;;;;;;;16.17;1.80;;;29.20;25.60;;;;;;5092405;28;20039;-72
2022/07/18 11:41:52;;;;;;;14.40;1.58;;;29.30;26.10;;;;;;5092313;28;20501;-73
2022/07/18 11:44:26;;;;;;;6.65;1.48;;;29.30;25.90;;;;;;5092326;28;20052;-72
2022/07/18 11:47:09;;;;;;;4.60;1.10;;;29.30;25.20;;;;;;5090990;28;20028;-72
2022/07/18 11:49:36;;;;;;;8.38;2.10;;;29.30;25.60;;;;;;5092299;28;20415;-69
2022/07/18 11:52:04;;;;;;;5.80;1.13;;;29.40;25.90;;;;;;5091321;28;20028;-70
2022/07/18 11:54:30;;;;;;;4.30;1.33;;;29.50;25.40;;;;;;5095798;28;20016;-73
2022/07/18 11:56:56;;;;;;;5.75;1.38;;;29.50;24.90;;;;;;5096165;28;20110;-74
2022/07/18 11:59:22;;;;;;;1.45;0.93;;;29.60;24.60;;;;;;5095807;28;20039;-69
2022/07/18 12:01:55;;;;;;;2.17;0.93;;;29.60;24.40;;;;;;5095797;28;20020;-73
2022/07/18 12:04:23;;;;;;;1.95;1.33;;;29.70;24.60;;;;;;5094424;28;20134;-73
2022/07/18 12:07:18;;;;;;;2.28;1.00;;;29.70;24.20;;;;;;5095495;28;20469;-71
2022/07/18 12:09:45;;;;;;;2.67;1.05;;;29.80;24.70;;;;;;5095604;28;20020;-73
2022/07/18 12:12:12;;;;;;;4.75;1.48;;;29.90;24.90;;;;;;5095603;28;20029;-72
2022/07/18 12:14:38;;;;;;;5.68;1.48;;;29.90;24.40;;;;;;5095554;28;20016;-73
2022/07/18 12:17:05;;;;;;;3.33;1.25;;;30.00;23.90;;;;;;5094268;28;20031;-74
2022/07/18 12:19:37;;;;;;;5.07;1.40;;;30.10;23.90;;;;;;5093996;28;20028;-74
2022/07/18 12:22:03;;;;;;;3.25;1.65;;;30.20;23.90;;;;;;5094197;28;20035;-74
2022/07/18 12:24:49;;;;;;;2.30;1.27;;;30.20;23.80;;;;;;5094037;28;20032;-70
2022/07/18 12:27:25;;;;;;;2.08;1.20;;;30.30;24.40;;;;;;5095431;28;20047;-72
2022/07/18 12:30:19;;;;;;;1.05;0.95;;;30.40;23.90;;;;;;5095296;28;20058;-72
2022/07/18 12:32:59;;;;;;;2.50;1.13;;;30.60;24.20;;;;;;5095095;28;20077;-71
2022/07/18 12:35:37;;;;;;;5.63;1.65;;;30.70;23.80;;;;;;5093778;28;20038;-71
2022/07/18 12:38:06;;;;;;;3.80;1.10;;;30.80;23.10;;;;;;5095071;28;20028;-72
2022/07/18 12:40:44;;;;;;;2.47;1.15;;;30.90;22.80;;;;;;5094943;28;20114;-72
2022/07/18 12:43:15;;;;;;;1.83;1.02;;;30.90;23.20;;;;;;5094938;28;20024;-73
2022/07/18 12:45:43;;;;;;;2.83;1.10;;;30.90;23.00;;;;;;5094957;28;20073;-73
2022/07/18 12:48:10;;;;;;;2.28;1.02;;;31.00;23.00;;;;;;5094763;28;20099;-74
2022/07/18 12:50:38;;;;;;;2.47;1.10;;;31.10;23.40;;;;;;5094545;28;20043;-71
2022/07/18 12:53:04;;;;;;;4.38;1.30;;;31.10;23.70;;;;;;5094746;28;20362;-69
2022/07/18 12:55:30;;;;;;;2.03;1.15;;;31.20;23.50;;;;;;5094670;28;20020;-74
2022/07/18 12:57:56;;;;;;;1.38;1.23;;;31.30;23.50;;;;;;5114737;28;20038;-70